Time;durP1;ratioP1;P1;durP2;ratioP2;P2;SDS_P1;SDS_P2;PMS_P1;PMS_P2;Temp;Humidity;BMP_temperature;BMP_pressure;BME280_temperature;BME280_humidity;BME280_pressure;Samples;Min_cycle;Max_cycle;Signal;HPM_P1;HPM_P2
2021/03/08 00:00:20;;;;;;;302.75;124.35;;;52.00;1356.80;;;;;;5009459;28;20486;-73
2021/03/08 00:02:47;;;;;;;210.60;93.13;;;52.00;1331.20;;;;;;5006947;28;20097;-74
2021/03/08 00:05:13;;;;;;;193.25;89.82;;;52.10;1331.20;;;;;;5009593;28;20053;-79
2021/03/08 00:07:43;;;;;;;206.95;94.45;;;51.90;1331.20;;;;;;5009512;28;20336;-75
2021/03/08 00:10:10;;;;;;;230.38;103.47;;;51.90;1356.80;;;;;;5007259;28;20045;-74
2021/03/08 00:12:35;;;;;;;222.00;104.63;;;51.90;1356.80;;;;;;5009620;28;20511;-73
2021/03/08 00:15:01;;;;;;;224.40;102.90;;;51.80;1408.00;;;;;;5009458;28;20045;-74
2021/03/08 00:17:27;;;;;;;228.68;105.60;;;51.70;1408.00;;;;;;5008879;28;20472;-73
2021/03/08 00:19:53;;;;;;;235.88;107.40;;;51.90;1382.40;;;;;;5009646;28;20093;-72
2021/03/08 00:22:18;;;;;;;251.05;111.70;;;51.90;1382.40;;;;;;5009405;28;20026;-74
2021/03/08 00:24:44;;;;;;;267.42;120.55;;;51.80;1408.00;;;;;;5009032;28;20026;-72
2021/03/08 00:27:10;;;;;;;258.75;117.40;;;51.80;1408.00;;;;;;5010252;28;20018;-75
2021/03/08 00:29:36;;;;;;;259.80;113.85;;;51.70;1408.00;;;;;;5010150;28;20048;-74
2021/03/08 00:32:02;;;;;;;269.60;114.15;;;51.70;1408.00;;;;;;5010290;28;20112;-73
2021/03/08 00:34:27;;;;;;;277.55;118.18;;;51.60;1408.00;;;;;;5010149;28;20081;-72
2021/03/08 00:36:53;;;;;;;274.45;118.45;;;51.70;1408.00;;;;;;5010374;28;20018;-74
2021/03/08 00:39:19;;;;;;;249.52;108.85;;;51.70;1408.00;;;;;;5010954;28;20030;-72
2021/03/08 00:41:45;;;;;;;213.95;96.93;;;51.50;1408.00;;;;;;5014094;28;20500;-72
2021/03/08 00:44:10;;;;;;;185.55;82.57;;;51.60;1408.00;;;;;;5012047;28;20121;-74
2021/03/08 00:46:36;;;;;;;161.45;77.03;;;51.50;1408.00;;;;;;5013738;28;20030;-74
2021/03/08 00:49:04;;;;;;;158.93;74.65;;;51.40;1433.60;;;;;;5013729;28;20467;-73
2021/03/08 00:51:30;;;;;;;168.40;76.30;;;51.30;1433.60;;;;;;5013564;28;20384;-72
2021/03/08 00:53:55;;;;;;;177.65;78.93;;;51.40;1459.20;;;;;;5013776;28;20036;-74
2021/03/08 00:56:21;;;;;;;171.32;78.57;;;51.40;1459.20;;;;;;5013835;28;20488;-72
2021/03/08 00:58:46;;;;;;;176.80;80.57;;;51.40;1459.20;;;;;;5011835;28;20052;-72
2021/03/08 01:01:12;;;;;;;172.02;77.05;;;51.30;1484.80;;;;;;5013736;28;20028;-72
2021/03/08 01:03:38;;;;;;;173.95;77.85;;;51.20;1510.40;;;;;;5013331;28;20022;-72
2021/03/08 01:06:04;;;;;;;188.27;81.80;;;51.20;1510.40;;;;;;5013551;28;20463;-72
2021/03/08 01:08:29;;;;;;;205.30;84.05;;;51.20;1510.40;;;;;;5013344;28;20022;-72
2021/03/08 01:10:56;;;;;;;213.98;84.88;;;51.30;1510.40;;;;;;5012134;28;20141;-75
2021/03/08 01:13:22;;;;;;;213.20;86.30;;;51.30;1510.40;;;;;;5011922;28;20037;-72
2021/03/08 01:15:50;;;;;;;206.32;85.68;;;51.20;1536.00;;;;;;5013075;28;20046;-73
2021/03/08 01:18:17;;;;;;;209.02;87.60;;;51.20;1536.00;;;;;;5013681;28;20025;-72
2021/03/08 01:20:43;;;;;;;221.30;85.50;;;26.50;1510.40;;;;;;5013328;28;20029;-72
2021/03/08 01:23:09;;;;;;;238.70;90.03;;;26.50;1536.00;;;;;;5013359;28;20018;-72
2021/03/08 01:25:35;;;;;;;244.25;92.82;;;51.20;1561.60;;;;;;5013228;28;20421;-72
2021/03/08 01:28:01;;;;;;;232.35;91.28;;;51.20;1587.20;;;;;;5013180;28;20022;-72
2021/03/08 01:30:31;;;;;;;198.15;83.55;;;51.20;1587.20;;;;;;5011503;28;20034;-72
2021/03/08 01:32:56;;;;;;;194.27;79.88;;;51.30;1561.60;;;;;;5012873;28;20056;-72
2021/03/08 01:35:23;;;;;;;181.38;76.32;;;51.30;1561.60;;;;;;5013153;28;20045;-73
2021/03/08 01:37:49;;;;;;;164.52;68.97;;;51.40;1561.60;;;;;;5011464;28;20030;-75
2021/03/08 01:40:16;;;;;;;163.25;65.40;;;51.40;1587.20;;;;;;5012950;28;20163;-72
2021/03/08 01:42:43;;;;;;;177.82;68.20;;;51.40;1587.20;;;;;;5011581;28;20488;-72
2021/03/08 01:45:12;;;;;;;148.45;58.75;;;51.50;1587.20;;;;;;5012423;28;20412;-72
2021/03/08 01:47:38;;;;;;;109.30;50.22;;;51.50;1612.80;;;;;;5012612;28;20038;-72
2021/03/08 01:50:08;;;;;;;132.38;53.88;;;51.50;1587.20;;;;;;5012500;28;20053;-73
2021/03/08 01:52:34;;;;;;;209.77;70.00;;;51.50;1612.80;;;;;;5011736;28;20112;-72
2021/03/08 01:55:00;;;;;;;251.70;83.68;;;26.50;1587.20;;;;;;5012354;28;20465;-74
2021/03/08 01:57:26;;;;;;;277.70;88.35;;;51.40;1587.20;;;;;;5012467;28;20066;-75
2021/03/08 01:59:52;;;;;;;324.95;102.55;;;51.30;1612.80;;;;;;5012499;28;20415;-75
2021/03/08 02:02:18;;;;;;;243.60;84.90;;;51.40;1612.80;;;;;;5011006;28;20018;-76
2021/03/08 02:04:44;;;;;;;108.53;47.13;;;51.60;1587.20;;;;;;5012500;28;20026;-74
2021/03/08 02:07:10;;;;;;;104.28;44.90;;;51.60;1587.20;;;;;;5010956;28;20028;-74
2021/03/08 02:09:36;;;;;;;145.52;59.28;;;51.40;1587.20;;;;;;5012108;28;20108;-72
2021/03/08 02:12:27;;;;;;;120.55;51.47;;;51.40;1587.20;;;;;;5012353;28;20096;-75
2021/03/08 02:15:16;;;;;;;82.05;41.83;;;51.40;1587.20;;;;;;5010778;28;20042;-72
2021/03/08 02:18:10;;;;;;;76.78;38.97;;;51.50;1587.20;;;;;;5012207;28;20044;-72
2021/03/08 02:21:02;;;;;;;73.80;37.58;;;51.50;1587.20;;;;;;5011959;28;20370;-73
2021/03/08 02:23:34;;;;;;;75.82;38.92;;;51.40;1587.20;;;;;;5011839;28;20033;-72
2021/03/08 02:26:08;;;;;;;75.47;39.78;;;51.40;1587.20;;;;;;5011800;28;20456;-75
2021/03/08 02:28:46;;;;;;;67.90;37.25;;;51.20;1587.20;;;;;;5010725;28;20477;-75
2021/03/08 02:31:25;;;;;;;68.43;36.35;;;51.20;1587.20;;;;;;5011938;28;20093;-77
2021/03/08 02:34:05;;;;;;;75.97;37.65;;;51.20;1587.20;;;;;;5011805;28;20029;-76
2021/03/08 02:36:43;;;;;;;87.43;40.78;;;51.30;1561.60;;;;;;5011488;28;20034;-76
2021/03/08 02:39:17;;;;;;;87.72;40.90;;;51.20;1561.60;;;;;;5011652;28;20460;-76
2021/03/08 02:41:47;;;;;;;82.85;40.20;;;26.50;1561.60;;;;;;5011837;28;20464;-76
2021/03/08 02:44:15;;;;;;;84.30;41.70;;;26.40;1561.60;;;;;;5009932;28;20129;-75
2021/03/08 02:46:44;;;;;;;106.88;48.97;;;26.40;1561.60;;;;;;5011665;28;20045;-72
2021/03/08 02:49:15;;;;;;;157.82;64.07;;;26.50;1536.00;;;;;;5011542;28;20028;-72
2021/03/08 02:51:52;;;;;;;180.10;69.25;;;26.50;1561.60;;;;;;5011609;28;20109;-72
2021/03/08 02:54:20;;;;;;;134.88;55.85;;;26.50;1561.60;;;;;;5011395;28;20059;-72
2021/03/08 02:56:50;;;;;;;98.68;45.30;;;26.40;1561.60;;;;;;5010067;28;20065;-72
2021/03/08 02:59:18;;;;;;;74.78;38.45;;;26.30;1561.60;;;;;;5011297;28;20045;-72
2021/03/08 03:01:44;;;;;;;69.05;37.53;;;26.30;1561.60;;;;;;5011557;28;20033;-73
2021/03/08 03:04:12;;;;;;;77.15;39.58;;;26.30;1561.60;;;;;;5011307;28;20049;-73
2021/03/08 03:06:39;;;;;;;79.78;42.08;;;26.40;1561.60;;;;;;5011241;28;20029;-73
2021/03/08 03:09:08;;;;;;;87.55;46.22;;;26.30;1561.60;;;;;;5011266;28;20491;-74
2021/03/08 03:11:37;;;;;;;81.32;43.78;;;26.20;1587.20;;;;;;5011248;28;20077;-72
2021/03/08 03:14:04;;;;;;;80.03;41.47;;;26.10;1587.20;;;;;;5011185;28;20022;-73
2021/03/08 03:16:31;;;;;;;81.50;41.65;;;26.00;1612.80;;;;;;5010928;28;20488;-74
2021/03/08 03:18:58;;;;;;;83.70;43.03;;;26.00;1612.80;;;;;;5010954;28;20380;-72
2021/03/08 03:21:29;;;;;;;104.32;50.53;;;26.20;1612.80;;;;;;5011189;28;20104;-73
2021/03/08 03:23:56;;;;;;;113.28;56.45;;;26.10;1612.80;;;;;;5011206;28;20083;-71
2021/03/08 03:26:22;;;;;;;120.60;57.60;;;26.00;1612.80;;;;;;5011112;28;20033;-71
2021/03/08 03:28:49;;;;;;;101.03;49.65;;;25.90;1612.80;;;;;;5010889;28;20018;-72
2021/03/08 03:31:16;;;;;;;89.53;45.97;;;26.00;1612.80;;;;;;5011056;28;20034;-72
2021/03/08 03:33:43;;;;;;;88.78;45.13;;;26.00;1638.40;;;;;;5011026;28;20026;-72
2021/03/08 03:36:09;;;;;;;93.03;47.10;;;25.90;1638.40;;;;;;5009519;28;20037;-71
2021/03/08 03:38:36;;;;;;;95.80;49.67;;;25.90;1638.40;;;;;;5011012;28;20919;-73
2021/03/08 03:41:03;;;;;;;90.00;47.80;;;25.90;1638.40;;;;;;5011041;28;20152;-76
2021/03/08 03:43:31;;;;;;;91.45;47.45;;;25.80;1638.40;;;;;;5010608;28;20022;-75
2021/03/08 03:46:00;;;;;;;93.60;47.50;;;25.80;1638.40;;;;;;5010688;28;20037;-71
2021/03/08 03:48:26;;;;;;;94.13;47.67;;;25.80;1638.40;;;;;;5010739;28;20116;-73
2021/03/08 03:50:52;;;;;;;93.38;48.90;;;25.80;1638.40;;;;;;5010748;28;20443;-72
2021/03/08 03:53:18;;;;;;;92.32;47.78;;;25.90;1638.40;;;;;;5010621;28;20033;-72
2021/03/08 03:55:44;;;;;;;102.70;52.42;;;25.90;1638.40;;;;;;5009028;28;20396;-75
2021/03/08 03:58:34;;;;;;;124.15;58.20;;;25.90;1638.40;;;;;;5010649;28;20548;-75
2021/03/08 04:01:05;;;;;;;113.28;54.72;;;25.90;1612.80;;;;;;5010405;28;20057;-74
2021/03/08 04:03:34;;;;;;;105.53;52.07;;;25.80;1638.40;;;;;;5010827;28;20026;-74
2021/03/08 04:06:01;;;;;;;106.35;51.95;;;25.80;1638.40;;;;;;5010464;28;20014;-74
2021/03/08 04:08:28;;;;;;;99.85;49.92;;;25.70;1664.00;;;;;;5010381;28;20057;-73
2021/03/08 04:11:00;;;;;;;105.40;52.50;;;25.70;1664.00;;;;;;5010552;28;20026;-73
2021/03/08 04:13:32;;;;;;;107.82;51.75;;;0.90;1689.60;;;;;;5009050;28;20041;-73
2021/03/08 04:15:58;;;;;;;93.03;48.75;;;25.70;1664.00;;;;;;5013614;28;20058;-72
2021/03/08 04:18:26;;;;;;;91.70;49.45;;;25.60;1664.00;;;;;;5014317;28;20034;-74
2021/03/08 04:20:58;;;;;;;91.38;48.85;;;25.70;1664.00;;;;;;5014468;28;20030;-74
2021/03/08 04:23:25;;;;;;;94.93;50.10;;;25.70;1664.00;;;;;;5014395;28;20022;-73
2021/03/08 04:25:52;;;;;;;100.13;48.47;;;0.90;1689.60;;;;;;5014380;28;20427;-73
2021/03/08 04:28:19;;;;;;;93.10;47.30;;;0.90;1689.60;;;;;;5014124;28;20030;-72
2021/03/08 04:30:46;;;;;;;97.40;49.63;;;0.90;1664.00;;;;;;5014176;28;20047;-72
2021/03/08 04:33:13;;;;;;;99.55;49.95;;;0.80;1689.60;;;;;;5014263;28;20046;-71
2021/03/08 04:35:41;;;;;;;108.50;52.75;;;0.70;1689.60;;;;;;5014057;28;20080;-72
2021/03/08 04:38:08;;;;;;;110.55;58.25;;;0.70;1689.60;;;;;;5013882;28;20084;-72
2021/03/08 04:40:34;;;;;;;127.53;61.65;;;0.70;1689.60;;;;;;5014125;28;20033;-73
2021/03/08 04:43:03;;;;;;;115.47;58.85;;;0.70;1715.20;;;;;;5013808;28;20535;-72
2021/03/08 04:45:30;;;;;;;115.80;58.80;;;0.60;1715.20;;;;;;5013856;28;20026;-74
2021/03/08 04:47:57;;;;;;;113.22;58.00;;;0.60;1715.20;;;;;;5013838;28;20073;-72
2021/03/08 04:50:24;;;;;;;112.05;58.55;;;0.40;1740.80;;;;;;5013816;28;20030;-73
2021/03/08 04:52:51;;;;;;;112.68;58.92;;;0.40;1766.40;;;;;;5013691;28;20061;-72
2021/03/08 04:55:18;;;;;;;118.38;58.88;;;0.30;1766.40;;;;;;5013678;28;20049;-74
2021/03/08 04:57:44;;;;;;;112.90;58.67;;;0.30;1766.40;;;;;;5012665;28;20052;-71
2021/03/08 05:00:12;;;;;;;114.78;56.33;;;0.30;1766.40;;;;;;5013491;28;20022;-72
2021/03/08 05:02:43;;;;;;;124.47;59.47;;;0.50;1766.40;;;;;;5013552;28;20487;-71
2021/03/08 05:05:10;;;;;;;113.45;57.42;;;0.50;1740.80;;;;;;5013332;28;20030;-74
2021/03/08 05:07:39;;;;;;;114.28;59.10;;;0.60;1740.80;;;;;;5013574;28;20022;-72
2021/03/08 05:10:10;;;;;;;137.20;67.32;;;0.60;1740.80;;;;;;5013539;28;20033;-72
2021/03/08 05:12:39;;;;;;;123.72;63.20;;;0.70;1740.80;;;;;;5013152;28;20117;-72
2021/03/08 05:15:08;;;;;;;134.13;67.60;;;0.60;1740.80;;;;;;5013154;28;20120;-72
2021/03/08 05:17:35;;;;;;;128.30;64.22;;;0.40;1766.40;;;;;;5013513;28;20501;-73
2021/03/08 05:20:10;;;;;;;147.65;69.28;;;0.40;1766.40;;;;;;5013341;28;20850;-72
2021/03/08 05:22:38;;;;;;;135.73;68.22;;;0.40;1766.40;;;;;;5013191;28;20025;-72
2021/03/08 05:25:05;;;;;;;135.85;69.95;;;0.40;1766.40;;;;;;5012939;28;20022;-72
2021/03/08 05:27:32;;;;;;;143.80;71.57;;;0.40;1766.40;;;;;;5012196;28;20033;-73
2021/03/08 05:29:59;;;;;;;146.88;72.38;;;0.40;1792.00;;;;;;5012943;28;20026;-71
2021/03/08 05:32:41;;;;;;;151.80;76.55;;;0.30;1792.00;;;;;;5013020;28;20037;-72
2021/03/08 05:35:08;;;;;;;152.77;74.70;;;0.30;1792.00;;;;;;5012850;28;20022;-72
2021/03/08 05:37:35;;;;;;;139.70;73.18;;;0.20;1817.60;;;;;;5012982;28;20033;-72
2021/03/08 05:40:06;;;;;;;152.68;72.35;;;0.10;1817.60;;;;;;5012977;28;20025;-76
2021/03/08 05:42:36;;;;;;;141.38;69.78;;;0.30;1792.00;;;;;;5012881;28;20022;-76
2021/03/08 05:45:24;;;;;;;185.80;94.03;;;0.40;1766.40;;;;;;5012653;28;20041;-74
2021/03/08 05:48:16;;;;;;;178.38;90.53;;;0.40;1766.40;;;;;;5010752;28;20038;-75
2021/03/08 05:50:47;;;;;;;147.13;76.60;;;0.50;1766.40;;;;;;5012672;28;20049;-74
2021/03/08 05:53:48;;;;;;;150.40;74.63;;;0.60;1740.80;;;;;;5012729;28;20030;-74
2021/03/08 05:56:31;;;;;;;143.52;74.88;;;0.60;1740.80;;;;;;5012668;28;20025;-72
2021/03/08 05:59:17;;;;;;;146.32;76.75;;;0.80;1740.80;;;;;;5012235;28;20432;-73
2021/03/08 06:02:11;;;;;;;156.40;84.53;;;0.90;1715.20;;;;;;5011217;28;20022;-72
2021/03/08 06:04:49;;;;;;;162.63;88.55;;;0.90;1715.20;;;;;;4971190;28;20043;-72
2021/03/08 06:07:26;;;;;;;165.25;87.85;;;25.60;1715.20;;;;;;4955131;28;20030;-72
2021/03/08 06:10:06;;;;;;;171.18;87.40;;;25.60;1715.20;;;;;;4971280;28;20065;-72
2021/03/08 06:12:37;;;;;;;158.68;82.15;;;0.90;1715.20;;;;;;4971163;28;20104;-72
2021/03/08 06:15:04;;;;;;;159.77;81.82;;;0.90;1740.80;;;;;;4970824;28;20038;-72
2021/03/08 06:17:30;;;;;;;150.45;77.18;;;0.90;1740.80;;;;;;4954886;28;20126;-72
2021/03/08 06:19:57;;;;;;;152.13;77.78;;;0.80;1740.80;;;;;;4971056;28;20533;-74
2021/03/08 06:22:24;;;;;;;148.55;76.22;;;0.90;1740.80;;;;;;4954795;28;20039;-72
2021/03/08 06:24:50;;;;;;;152.38;78.60;;;0.90;1740.80;;;;;;4970575;28;20071;-73
2021/03/08 06:27:16;;;;;;;158.80;80.13;;;25.60;1740.80;;;;;;4970779;28;20150;-73
2021/03/08 06:29:43;;;;;;;187.10;99.47;;;25.60;1740.80;;;;;;4954788;28;20058;-73
2021/03/08 06:32:11;;;;;;;208.80;108.95;;;25.70;1740.80;;;;;;4954316;28;20525;-72
2021/03/08 06:34:38;;;;;;;222.77;117.35;;;25.80;1740.80;;;;;;4970828;28;20047;-71
2021/03/08 06:37:09;;;;;;;203.27;108.22;;;25.80;1740.80;;;;;;4954189;28;20022;-74
2021/03/08 06:39:36;;;;;;;212.88;112.88;;;25.90;1715.20;;;;;;4970621;28;20101;-73
2021/03/08 06:42:03;;;;;;;215.60;113.78;;;26.00;1715.20;;;;;;5008989;28;20026;-72
2021/03/08 06:44:29;;;;;;;249.18;127.32;;;26.10;1715.20;;;;;;5011639;28;20022;-72
2021/03/08 06:46:56;;;;;;;243.45;129.15;;;26.20;1715.20;;;;;;5011972;28;20034;-72
2021/03/08 06:49:22;;;;;;;268.77;137.95;;;26.00;1715.20;;;;;;5011772;28;20026;-72
2021/03/08 06:52:09;;;;;;;269.58;142.68;;;26.30;1689.60;;;;;;5011556;28;20045;-72
2021/03/08 06:54:37;;;;;;;267.13;136.68;;;26.40;1715.20;;;;;;5010309;28;20045;-73
2021/03/08 06:57:25;;;;;;;370.80;192.18;;;26.40;1740.80;;;;;;5011596;28;20028;-72
2021/03/08 06:59:58;;;;;;;324.35;158.05;;;26.50;1740.80;;;;;;5011663;28;20018;-75
2021/03/08 07:02:35;;;;;;;393.30;203.98;;;51.20;1766.40;;;;;;5011652;28;20033;-74
2021/03/08 07:05:00;;;;;;;293.65;147.32;;;51.30;1740.80;;;;;;5011561;28;20025;-78
2021/03/08 07:07:26;;;;;;;311.63;157.43;;;51.30;1766.40;;;;;;5010343;28;20384;-83
2021/03/08 07:09:53;;;;;;;280.98;141.82;;;51.50;1740.80;;;;;;5011533;28;20031;-73
2021/03/08 07:12:21;;;;;;;302.70;146.88;;;51.60;1740.80;;;;;;5009722;28;20198;-86
2021/03/08 07:15:02;;;;;;;281.30;138.27;;;51.60;1715.20;;;;;;5011595;28;20030;-83
2021/03/08 07:17:37;;;;;;;236.48;120.20;;;51.70;1715.20;;;;;;5012022;28;20033;-84
2021/03/08 07:20:09;;;;;;;251.10;128.48;;;51.80;1715.20;;;;;;5012376;28;20025;-78
2021/03/08 07:22:45;;;;;;;251.07;130.70;;;51.90;1715.20;;;;;;5011715;28;20030;-77
2021/03/08 07:25:28;;;;;;;207.32;110.15;;;52.00;1715.20;;;;;;5011599;28;20067;-86
2021/03/08 07:28:04;;;;;;;217.75;110.75;;;52.10;1715.20;;;;;;5011448;28;20105;-79
2021/03/08 07:30:38;;;;;;;190.48;101.00;;;76.80;1689.60;;;;;;5009707;28;20380;-80
2021/03/08 07:33:05;;;;;;;171.00;92.18;;;77.00;1689.60;;;;;;5011465;28;20033;-78
2021/03/08 07:35:45;;;;;;;159.05;85.35;;;77.00;1664.00;;;;;;5011680;28;20357;-84
2021/03/08 07:38:27;;;;;;;154.40;80.45;;;77.20;1638.40;;;;;;5011987;28;20022;-84
2021/03/08 07:41:07;;;;;;;;;;;77.30;1638.40;;;;;;5013210;28;20025;-87
2021/03/08 07:43:32;;;;;;;144.07;78.25;;;77.40;1612.80;;;;;;5011371;28;19960;-73
2021/03/08 07:45:58;;;;;;;124.05;65.90;;;77.50;1612.80;;;;;;5009521;28;20038;-78
2021/03/08 07:48:24;;;;;;;120.97;66.47;;;77.60;1561.60;;;;;;5010861;28;20117;-74
2021/03/08 07:50:51;;;;;;;111.65;62.88;;;77.70;1536.00;;;;;;5009205;28;20026;-86
2021/03/08 07:53:31;;;;;;;104.35;55.88;;;102.50;1536.00;;;;;;5009396;28;20034;-84
2021/03/08 07:56:09;;;;;;;94.17;52.03;;;102.60;1484.80;;;;;;5009461;28;20030;-79
2021/03/08 07:58:37;;;;;;;91.80;50.13;;;102.70;1484.80;;;;;;5010174;28;20030;-75
2021/03/08 08:01:04;;;;;;;82.97;48.50;;;102.80;1459.20;;;;;;5010727;28;20034;-73
2021/03/08 08:03:32;;;;;;;94.40;53.40;;;102.90;1459.20;;;;;;5010554;28;20037;-86
2021/03/08 08:06:04;;;;;;;85.07;49.88;;;103.00;1459.20;;;;;;5009517;28;20030;-73
2021/03/08 08:08:31;;;;;;;97.63;53.28;;;103.00;1433.60;;;;;;5010679;28;20018;-75
2021/03/08 08:10:59;;;;;;;91.60;55.72;;;103.10;1433.60;;;;;;5010603;28;20026;-77
2021/03/08 08:13:47;;;;;;;97.43;58.03;;;103.20;1408.00;;;;;;5011233;28;20068;-80
2021/03/08 08:16:14;;;;;;;88.20;52.53;;;128.00;1433.60;;;;;;5012027;28;20075;-91
2021/03/08 08:18:43;;;;;;;83.72;47.45;;;128.20;1408.00;;;;;;5012676;28;20105;-90
2021/03/08 08:21:14;;;;;;;81.85;47.38;;;128.30;1382.40;;;;;;5012307;28;20022;-86
2021/03/08 08:23:43;;;;;;;79.97;44.90;;;128.40;1382.40;;;;;;5011308;28;20022;-89
2021/03/08 08:26:13;;;;;;;81.60;46.72;;;128.50;1356.80;;;;;;5012328;28;20026;-87
2021/03/08 08:28:46;;;;;;;79.05;45.42;;;128.60;1356.80;;;;;;5011395;28;20427;-90
2021/03/08 08:31:12;;;;;;;79.47;45.97;;;128.80;1356.80;;;;;;5010005;28;20032;-85
2021/03/08 08:33:38;;;;;;;80.05;46.65;;;128.90;1331.20;;;;;;5010507;28;20022;-76
2021/03/08 08:36:14;;;;;;;84.95;48.33;;;153.60;1305.60;;;;;;5010447;28;20053;-76
2021/03/08 08:38:42;;;;;;;75.55;47.72;;;153.70;1280.00;;;;;;5010802;28;20472;-89
2021/03/08 08:41:28;;;;;;;92.30;54.45;;;153.90;1280.00;;;;;;5010689;28;20539;-83
2021/03/08 08:44:09;;;;;;;68.20;42.80;;;154.00;1280.00;;;;;;5010695;28;20052;-87
2021/03/08 08:46:39;;;;;;;;;;;154.20;1254.40;;;;;;5009283;28;20475;-75
2021/03/08 08:49:07;;;;;;;54.08;32.30;;;154.30;1254.40;;;;;;5010255;28;19947;-75
2021/03/08 08:51:58;;;;;;;55.53;34.58;;;154.40;1177.60;;;;;;5010376;28;20030;-75
2021/03/08 08:54:27;;;;;;;61.42;38.60;;;154.50;1203.20;;;;;;5010239;28;20022;-75
2021/03/08 08:56:54;;;;;;;53.22;33.72;;;179.20;1203.20;;;;;;5010228;28;20018;-76
2021/03/08 08:59:20;;;;;;;56.63;33.67;;;179.30;1177.60;;;;;;5008774;28;20169;-74
2021/03/08 09:01:48;;;;;;;45.65;28.73;;;179.50;1177.60;;;;;;5011718;28;20080;-75
2021/03/08 09:04:18;;;;;;;37.72;24.65;;;179.60;1126.40;;;;;;5013728;28;20072;-72
2021/03/08 09:06:44;;;;;;;50.20;30.10;;;179.60;1049.60;;;;;;5013639;28;20025;-75
2021/03/08 09:09:32;;;;;;;46.92;30.90;;;179.60;1100.80;;;;;;5013579;28;20030;-74
2021/03/08 09:12:04;;;;;;;51.83;32.22;;;179.70;1100.80;;;;;;4955803;28;20043;-76
2021/03/08 09:14:47;;;;;;;52.60;33.22;;;179.80;1126.40;;;;;;4971867;28;20513;-76
2021/03/08 09:17:41;;;;;;;49.75;32.13;;;179.90;1100.80;;;;;;4952920;29;20149;-75
2021/03/08 09:20:06;;;;;;;38.67;24.80;;;179.90;1100.80;;;;;;4952907;29;20031;-76
2021/03/08 09:22:34;;;;;;;45.85;28.88;;;180.00;1075.20;;;;;;4936845;29;20027;-74
2021/03/08 09:25:11;;;;;;;42.72;27.10;;;180.10;1100.80;;;;;;4952641;29;20479;-75
2021/03/08 09:27:37;;;;;;;40.03;26.20;;;204.80;1075.20;;;;;;4936518;29;20122;-76
2021/03/08 09:30:10;;;;;;;42.28;26.77;;;204.90;1075.20;;;;;;4952800;29;20122;-73
2021/03/08 09:32:45;;;;;;;50.47;32.33;;;205.00;1100.80;;;;;;4952719;29;20529;-76
2021/03/08 09:35:11;;;;;;;51.15;31.63;;;205.10;1075.20;;;;;;4952702;29;20039;-76
2021/03/08 09:37:40;;;;;;;36.10;24.83;;;205.10;1049.60;;;;;;4952441;29;20520;-76
2021/03/08 09:40:06;;;;;;;32.60;22.30;;;205.20;1075.20;;;;;;4936584;29;20556;-74
2021/03/08 09:42:36;;;;;;;33.78;21.23;;;205.30;1024.00;;;;;;4952761;29;20470;-77
2021/03/08 09:45:21;;;;;;;34.05;24.08;;;205.40;1024.00;;;;;;4952139;29;20131;-76
2021/03/08 09:47:47;;;;;;;38.65;26.08;;;205.40;1024.00;;;;;;4936438;28;20043;-73
2021/03/08 09:50:18;;;;;;;38.95;25.23;;;205.60;1024.00;;;;;;4973855;28;20094;-75
2021/03/08 09:52:46;;;;;;;44.23;30.67;;;205.60;998.40;;;;;;4973604;28;20074;-76
2021/03/08 09:55:23;;;;;;;35.15;24.08;;;205.70;1049.60;;;;;;4973649;28;20265;-74
2021/03/08 09:57:50;;;;;;;34.75;24.80;;;230.40;998.40;;;;;;4973404;28;20035;-73
2021/03/08 10:00:18;;;;;;;31.52;22.45;;;230.40;972.80;;;;;;4973266;28;20022;-72
2021/03/08 10:02:44;;;;;;;35.50;22.35;;;230.40;972.80;;;;;;4973663;28;20026;-75
2021/03/08 10:05:11;;;;;;;36.70;23.05;;;230.40;947.20;;;;;;4972714;28;20389;-74
2021/03/08 10:07:54;;;;;;;46.53;30.67;;;230.50;972.80;;;;;;4974183;28;20089;-75
2021/03/08 10:10:23;;;;;;;38.22;24.45;;;231.20;1024.00;;;;;;4973950;28;20362;-75
2021/03/08 10:12:59;;;;;;;31.73;21.95;;;230.70;947.20;;;;;;4973216;28;20465;-74
2021/03/08 10:15:25;;;;;;;42.42;28.77;;;230.70;921.60;;;;;;4987504;28;20054;-73
2021/03/08 10:18:01;;;;;;;30.52;21.73;;;230.80;921.60;;;;;;5012125;28;20073;-75
2021/03/08 10:20:28;;;;;;;29.95;21.30;;;230.90;947.20;;;;;;5012914;28;20014;-75
2021/03/08 10:22:54;;;;;;;27.83;19.45;;;231.00;947.20;;;;;;5013693;28;20022;-75
2021/03/08 10:25:32;;;;;;;34.50;23.50;;;230.90;896.00;;;;;;5013509;28;20530;-74
2021/03/08 10:28:03;;;;;;;34.58;24.35;;;231.10;896.00;;;;;;5013845;28;20022;-73
2021/03/08 10:30:33;;;;;;;37.10;25.52;;;231.20;870.40;;;;;;5013467;28;20030;-73
2021/03/08 10:33:03;;;;;;;40.50;26.45;;;256.00;896.00;;;;;;5012333;28;20061;-75
2021/03/08 10:35:40;;;;;;;27.70;20.30;;;256.20;921.60;;;;;;5013325;28;20030;-71
2021/03/08 10:38:06;;;;;;;28.77;19.88;;;256.20;844.80;;;;;;5013107;28;20299;-73
2021/03/08 10:40:32;;;;;;;31.27;20.92;;;256.20;844.80;;;;;;5012848;28;20056;-74
2021/03/08 10:42:59;;;;;;;33.30;21.63;;;256.30;844.80;;;;;;5014735;28;20445;-74
2021/03/08 10:45:26;;;;;;;35.25;23.70;;;256.30;870.40;;;;;;5014771;28;20113;-72
2021/03/08 10:48:12;;;;;;;34.00;22.88;;;256.50;870.40;;;;;;5013819;28;20018;-74
2021/03/08 10:50:50;;;;;;;38.33;28.13;;;256.70;844.80;;;;;;5011972;28;20030;-76
2021/03/08 10:53:18;;;;;;;34.40;23.80;;;256.70;819.20;;;;;;5014759;28;20029;-76
2021/03/08 10:55:44;;;;;;;38.28;25.75;;;256.70;793.60;;;;;;5015374;28;20045;-74
2021/03/08 10:58:10;;;;;;;46.30;30.95;;;256.70;819.20;;;;;;5014896;28;20029;-78
2021/03/08 11:00:37;;;;;;;31.05;21.60;;;256.80;844.80;;;;;;5014422;28;20026;-79
2021/03/08 11:03:03;;;;;;;43.17;27.83;;;256.80;819.20;;;;;;5014693;28;20473;-89
2021/03/08 11:05:31;;;;;;;60.50;45.72;;;256.90;844.80;;;;;;5012470;28;20030;-77
2021/03/08 11:07:57;;;;;;;35.38;25.98;;;256.90;793.60;;;;;;5015527;28;20030;-83
2021/03/08 11:10:38;;;;;;;44.25;32.97;;;256.90;793.60;;;;;;5014122;28;20022;-88
2021/03/08 11:13:06;;;;;;;30.70;21.70;;;281.70;844.80;;;;;;5009226;28;20038;-78
2021/03/08 11:15:32;;;;;;;26.58;20.08;;;281.80;844.80;;;;;;5011898;28;20073;-75
2021/03/08 11:17:58;;;;;;;27.65;20.55;;;281.80;819.20;;;;;;5007995;28;20026;-75
2021/03/08 11:20:32;;;;;;;33.63;22.67;;;281.80;819.20;;;;;;5010474;28;20021;-76
2021/03/08 11:23:03;;;;;;;31.00;22.52;;;281.90;819.20;;;;;;5010251;28;20423;-75
2021/03/08 11:25:45;;;;;;;31.35;21.00;;;282.00;819.20;;;;;;5009382;28;20464;-80
2021/03/08 11:28:16;;;;;;;32.40;21.92;;;282.10;819.20;;;;;;5008887;28;20033;-73
2021/03/08 11:30:50;;;;;;;32.63;21.55;;;282.20;844.80;;;;;;5007878;28;20135;-73
2021/03/08 11:33:16;;;;;;;28.23;20.80;;;282.20;793.60;;;;;;5010057;28;20033;-78
2021/03/08 11:35:48;;;;;;;28.23;19.58;;;282.20;793.60;;;;;;5009814;28;20104;-81
2021/03/08 11:38:18;;;;;;;27.10;18.90;;;282.20;793.60;;;;;;5009024;28;20053;-81
2021/03/08 11:40:47;;;;;;;31.02;21.90;;;282.20;793.60;;;;;;5010487;28;20022;-92
2021/03/08 11:43:17;;;;;;;27.13;20.02;;;282.30;793.60;;;;;;5014460;28;20373;-75
2021/03/08 11:45:43;;;;;;;28.60;21.15;;;282.30;793.60;;;;;;5006914;28;20060;-72
2021/03/08 11:48:09;;;;;;;27.35;18.55;;;307.20;819.20;;;;;;5009696;28;20053;-72
2021/03/08 11:50:36;;;;;;;30.73;20.02;;;307.50;819.20;;;;;;5009458;28;20366;-74
2021/03/08 11:53:03;;;;;;;28.58;22.45;;;307.40;768.00;;;;;;5010136;28;20076;-74
2021/03/08 11:55:29;;;;;;;32.25;22.02;;;307.30;768.00;;;;;;5009971;28;20017;-74
2021/03/08 11:57:55;;;;;;;31.23;21.70;;;307.30;793.60;;;;;;5007822;28;20353;-78
2021/03/08 12:00:23;;;;;;;26.38;18.77;;;307.30;768.00;;;;;;5010362;28;20469;-72
2021/03/08 12:02:49;;;;;;;27.15;19.67;;;307.30;768.00;;;;;;5010564;28;20022;-79
2021/03/08 12:05:16;;;;;;;24.75;18.88;;;307.30;768.00;;;;;;5010666;28;20044;-75
2021/03/08 12:07:42;;;;;;;26.08;18.95;;;307.50;768.00;;;;;;5013658;28;20033;-87
2021/03/08 12:10:10;;;;;;;24.65;18.30;;;307.60;742.40;;;;;;5010280;28;20052;-92
2021/03/08 12:12:36;;;;;;;26.15;19.90;;;307.70;742.40;;;;;;5011142;28;20155;-77
2021/03/08 12:15:04;;;;;;;36.08;20.33;;;307.70;742.40;;;;;;5008751;28;20038;-81
2021/03/08 12:17:30;;;;;;;31.38;23.95;;;307.70;742.40;;;;;;5016987;28;20056;-82